Bury, United Kingdom
Current Conditions -  °F | °C
As of 3:50 AM on Friday 19 Dec 2014 (Local Time) from EGCC Reporting Station
Broken Clouds Broken Clouds  
Wind Chill: 37°   Ceiling: 4500
Heat Index: 45°   Visibility: 6mi
Dew Point: 39°   Wind: 17mph
Humidity: 81%   Direction: 280°W
Pressure: 29.71"   Gusts: NA
Location:  53.59°N, 2.3°W
Report Text: EGCC 190350Z AUTO 28015KT 9999 BKN045 07/04 Q1006
Loading
Personal Weather Stations






























Interactive Weather Map New forecast layout! Learn more

10-Day Weather Forecast

Advertisements
Track Severe Weather on mobile